createdAt,value
2018-09-12T00:02:26.486Z,3.58
2018-09-12T00:04:55.424Z,4.40
2018-09-12T00:07:24.439Z,3.27
2018-09-12T00:09:53.488Z,3.08
2018-09-12T00:12:22.473Z,3.60
2018-09-12T00:14:51.568Z,3.60
2018-09-12T00:17:20.805Z,4.00
2018-09-12T00:19:49.765Z,3.45
2018-09-12T00:22:18.942Z,3.27
2018-09-12T00:24:47.927Z,3.20
2018-09-12T00:27:16.981Z,4.15
2018-09-12T00:29:46.026Z,3.65
2018-09-12T00:32:14.976Z,3.05
2018-09-12T00:34:44.068Z,2.98
2018-09-12T00:37:13.036Z,3.12
2018-09-12T00:39:42.040Z,3.22
2018-09-12T00:42:11.046Z,2.80
2018-09-12T00:44:40.064Z,2.77
2018-09-12T00:47:09.046Z,3.20
2018-09-12T00:49:38.346Z,2.90
2018-09-12T00:52:07.313Z,3.55
2018-09-12T00:54:36.269Z,3.00
2018-09-12T00:57:05.417Z,3.60
2018-09-12T00:59:34.516Z,3.00
2018-09-12T01:02:03.464Z,4.03
2018-09-12T01:04:32.523Z,2.85
2018-09-12T01:07:01.567Z,3.00
2018-09-12T01:09:30.566Z,3.37
2018-09-12T01:11:59.507Z,3.15
2018-09-12T01:14:31.470Z,3.20
2018-09-12T01:17:00.709Z,3.02
2018-09-12T01:19:30.895Z,3.70
2018-09-12T01:21:59.907Z,3.85
2018-09-12T01:24:29.038Z,2.95
2018-09-12T01:26:58.059Z,3.12
2018-09-12T01:29:27.945Z,3.10
2018-09-12T01:31:56.958Z,3.37
2018-09-12T01:34:26.049Z,3.10
2018-09-12T01:36:55.040Z,2.80
2018-09-12T01:39:24.023Z,2.92
2018-09-12T01:41:53.186Z,2.50
2018-09-12T01:44:22.179Z,3.02
2018-09-12T01:46:51.243Z,2.92
2018-09-12T01:49:20.320Z,2.95
2018-09-12T01:51:49.987Z,2.90
2018-09-12T01:54:19.556Z,2.87
2018-09-12T01:56:48.579Z,3.85
2018-09-12T01:59:17.601Z,3.40
2018-09-12T02:01:46.671Z,2.45
2018-09-12T02:04:15.698Z,3.12
2018-09-12T02:06:44.661Z,2.90
2018-09-12T02:09:15.018Z,3.02
2018-09-12T02:11:43.992Z,3.08
2018-09-12T02:14:28.123Z,2.62
2018-09-12T02:19:49.702Z,4.03
2018-09-12T02:22:18.761Z,4.22
2018-09-12T02:24:47.711Z,4.75
2018-09-12T02:27:16.737Z,4.50
2018-09-12T02:29:45.755Z,3.65
2018-09-12T02:32:14.709Z,3.50
2018-09-12T02:34:43.686Z,3.30
2018-09-12T02:37:12.618Z,2.58
2018-09-12T02:39:58.083Z,2.30
2018-09-12T02:42:49.697Z,1.98
2018-09-12T02:45:19.740Z,1.60
2018-09-12T02:47:48.720Z,1.92
2018-09-12T02:50:17.743Z,1.77
2018-09-12T02:52:46.707Z,1.35
2018-09-12T02:55:15.679Z,1.60
2018-09-12T02:57:44.635Z,1.75
2018-09-12T03:00:13.578Z,1.47
2018-09-12T03:02:42.603Z,1.35
2018-09-12T03:05:11.718Z,0.93
2018-09-12T03:07:40.752Z,0.80
2018-09-12T03:10:09.852Z,0.80
2018-09-12T03:12:38.957Z,0.98
2018-09-12T03:15:07.958Z,0.72
2018-09-12T03:17:36.921Z,0.60
2018-09-12T03:20:05.925Z,0.90
2018-09-12T03:22:34.835Z,0.70
2018-09-12T03:25:03.801Z,0.85
2018-09-12T03:27:32.833Z,1.00
2018-09-12T03:30:01.947Z,1.02
2018-09-12T03:32:30.840Z,1.20
2018-09-12T03:34:59.883Z,0.90
2018-09-12T03:37:28.911Z,0.80
2018-09-12T03:39:57.849Z,0.78
2018-09-12T03:42:26.791Z,1.00
2018-09-12T03:44:55.752Z,0.80
2018-09-12T03:47:24.715Z,1.17
2018-09-12T03:49:53.699Z,0.90
2018-09-12T03:52:22.694Z,0.70
2018-09-12T03:54:51.642Z,0.50
2018-09-12T03:57:21.443Z,0.65
2018-09-12T03:59:50.429Z,0.80
2018-09-12T04:02:19.380Z,0.70
2018-09-12T04:04:48.510Z,0.60
2018-09-12T04:07:17.484Z,0.80
2018-09-12T04:09:46.410Z,0.70
2018-09-12T04:12:15.677Z,0.40
2018-09-12T04:14:44.633Z,0.50
2018-09-12T04:17:13.630Z,0.33
2018-09-12T04:19:42.585Z,0.53
2018-09-12T04:22:11.542Z,0.40
2018-09-12T04:24:40.589Z,0.47
2018-09-12T04:27:09.564Z,0.45
2018-09-12T04:29:38.487Z,0.45
2018-09-12T04:32:07.530Z,0.30
2018-09-12T04:34:36.559Z,0.40
2018-09-12T04:37:05.582Z,0.42
2018-09-12T04:39:34.569Z,0.40
2018-09-12T04:42:03.551Z,0.75
2018-09-12T04:44:32.474Z,0.50
2018-09-12T04:47:01.437Z,0.35
2018-09-12T04:49:30.493Z,0.30
2018-09-12T04:51:59.446Z,0.40
2018-09-12T04:54:28.341Z,0.30
2018-09-12T04:56:57.369Z,0.40
2018-09-12T04:59:26.340Z,0.40
2018-09-12T05:01:55.344Z,0.45
2018-09-12T05:04:24.353Z,0.40
2018-09-12T05:06:53.316Z,0.68
2018-09-12T05:09:22.291Z,0.37
2018-09-12T05:11:51.265Z,0.53
2018-09-12T05:14:20.187Z,0.57
2018-09-12T05:16:49.192Z,0.90
2018-09-12T05:19:18.124Z,0.40
2018-09-12T05:21:47.193Z,0.42
2018-09-12T05:24:16.169Z,0.70
2018-09-12T05:26:45.161Z,0.53
2018-09-12T05:29:14.095Z,0.65
2018-09-12T05:31:43.108Z,0.50
2018-09-12T05:34:12.132Z,0.78
2018-09-12T05:36:41.122Z,0.70
2018-09-12T05:39:10.901Z,0.88
2018-09-12T05:41:40.276Z,0.60
2018-09-12T05:44:09.366Z,0.85
2018-09-12T05:46:39.714Z,0.50
2018-09-12T05:49:09.790Z,0.50
2018-09-12T05:51:38.802Z,0.50
2018-09-12T05:54:07.780Z,0.60
2018-09-12T05:56:36.702Z,0.53
2018-09-12T05:59:05.861Z,1.20
2018-09-12T06:01:34.825Z,0.40
2018-09-12T06:04:03.851Z,0.88
2018-09-12T06:06:33.004Z,0.50
2018-09-12T06:09:01.903Z,0.50
2018-09-12T06:11:30.956Z,0.70
2018-09-12T06:14:00.374Z,0.80
2018-09-12T06:16:29.390Z,0.50
2018-09-12T06:18:58.614Z,0.88
2018-09-12T06:21:27.602Z,0.50
2018-09-12T06:23:56.615Z,0.62
2018-09-12T06:26:25.604Z,0.55
2018-09-12T06:28:54.551Z,0.78
2018-09-12T06:31:23.527Z,0.55
2018-09-12T06:33:52.623Z,0.82
2018-09-12T06:36:21.659Z,0.70
2018-09-12T06:38:50.626Z,0.70
2018-09-12T06:41:19.625Z,0.40
2018-09-12T06:43:49.062Z,0.50
2018-09-12T06:46:18.076Z,0.53
2018-09-12T06:48:47.005Z,0.50
2018-09-12T06:51:16.052Z,0.70
2018-09-12T06:53:45.069Z,0.60
2018-09-12T06:56:14.363Z,1.17
2018-09-12T06:58:43.352Z,0.50
2018-09-12T07:01:12.374Z,0.70
2018-09-12T07:03:41.344Z,0.50
2018-09-12T07:06:10.531Z,0.35
2018-09-12T07:08:39.452Z,0.53
2018-09-12T07:11:08.402Z,0.60
2018-09-12T07:13:37.385Z,0.70
2018-09-12T07:16:06.401Z,0.62
2018-09-12T07:18:35.412Z,0.47
2018-09-12T07:21:04.547Z,0.60
2018-09-12T07:23:33.496Z,0.72
2018-09-12T07:26:03.159Z,0.50
2018-09-12T07:28:32.143Z,1.22
2018-09-12T07:31:01.171Z,0.85
2018-09-12T07:33:30.150Z,0.90
2018-09-12T07:35:59.128Z,0.55
2018-09-12T07:38:28.103Z,0.57
2018-09-12T07:40:57.105Z,0.70
2018-09-12T07:43:26.077Z,0.60
2018-09-12T07:45:55.099Z,0.78
2018-09-12T07:48:24.054Z,0.88
2018-09-12T07:50:53.020Z,0.90
2018-09-12T07:53:22.003Z,0.90
2018-09-12T07:55:51.034Z,0.60
2018-09-12T07:58:20.051Z,0.88
2018-09-12T08:00:49.012Z,0.72
2018-09-12T08:03:17.977Z,0.60
2018-09-12T08:05:47.158Z,1.35
2018-09-12T08:08:16.048Z,0.90
2018-09-12T08:10:45.044Z,0.60
2018-09-12T08:13:14.120Z,0.65
2018-09-12T08:15:43.075Z,0.70
2018-09-12T08:18:11.990Z,0.60
2018-09-12T08:20:40.960Z,0.70
2018-09-12T08:23:10.094Z,1.07
2018-09-12T08:25:39.080Z,0.93
2018-09-12T08:28:08.061Z,1.05
2018-09-12T08:30:37.108Z,0.57
2018-09-12T08:33:06.354Z,0.78
2018-09-12T08:35:35.292Z,0.70
2018-09-12T08:38:04.341Z,1.40
2018-09-12T08:40:33.371Z,0.78
2018-09-12T08:43:02.333Z,0.50
2018-09-12T08:45:31.325Z,1.00
2018-09-12T08:48:00.283Z,0.60
2018-09-12T08:50:29.280Z,0.68
2018-09-12T08:52:58.242Z,0.70
2018-09-12T08:55:27.233Z,0.47
2018-09-12T08:57:56.281Z,0.75
2018-09-12T09:00:34.423Z,0.55
2018-09-12T09:03:04.538Z,0.70
2018-09-12T09:05:33.525Z,0.55
2018-09-12T09:08:02.552Z,0.65
2018-09-12T09:10:31.552Z,0.40
2018-09-12T09:13:00.591Z,0.62
2018-09-12T09:15:29.515Z,1.57
2018-09-12T09:17:58.487Z,0.60
2018-09-12T09:20:27.468Z,0.98
2018-09-12T09:22:56.573Z,0.80
2018-09-12T09:25:25.555Z,0.50
2018-09-12T09:27:54.632Z,0.60
2018-09-12T09:30:28.077Z,0.70
2018-09-12T09:32:57.065Z,0.65
2018-09-12T09:35:26.076Z,0.55
2018-09-12T09:37:55.194Z,0.72
2018-09-12T09:40:24.206Z,0.93
2018-09-12T09:42:53.283Z,0.88
2018-09-12T09:45:22.270Z,1.40
2018-09-12T09:47:51.375Z,0.75
2018-09-12T09:50:20.392Z,0.57
2018-09-12T09:52:49.342Z,1.00
2018-09-12T09:55:18.324Z,0.70
2018-09-12T09:57:47.274Z,0.75
2018-09-12T10:01:20.116Z,0.90
2018-09-12T10:03:54.422Z,0.60
2018-09-12T10:06:32.694Z,0.78
2018-09-12T10:09:05.862Z,1.00
2018-09-12T10:11:34.804Z,0.90
2018-09-12T10:14:03.850Z,0.78
2018-09-12T10:16:32.886Z,0.60
2018-09-12T10:19:01.862Z,0.80
2018-09-12T10:21:30.849Z,0.90
2018-09-12T10:23:59.837Z,0.93
2018-09-12T10:26:28.804Z,0.70
2018-09-12T10:28:57.882Z,0.75
2018-09-12T10:31:26.841Z,0.85
2018-09-12T10:33:55.797Z,0.88
2018-09-12T10:36:24.779Z,0.80
2018-09-12T10:38:53.751Z,0.80
2018-09-12T10:41:22.730Z,0.90
2018-09-12T10:43:52.488Z,0.90
2018-09-12T10:46:21.479Z,0.70
2018-09-12T10:48:50.449Z,1.05
2018-09-12T10:51:19.441Z,0.90
2018-09-12T10:53:48.399Z,0.60
2018-09-12T10:56:17.541Z,0.80
2018-09-12T10:58:46.496Z,1.37
2018-09-12T11:01:15.548Z,1.05
2018-09-12T11:03:44.533Z,0.90
2018-09-12T11:06:13.477Z,0.68
2018-09-12T11:08:42.534Z,0.80
2018-09-12T11:11:11.443Z,0.90
2018-09-12T11:13:40.399Z,0.80
2018-09-12T11:16:09.601Z,0.95
2018-09-12T11:18:38.588Z,0.90
2018-09-12T11:21:07.513Z,1.05
2018-09-12T11:23:36.482Z,0.80
2018-09-12T11:26:05.433Z,1.27
2018-09-12T11:28:34.358Z,1.07
2018-09-12T11:31:03.456Z,0.80
2018-09-12T11:33:32.605Z,1.20
2018-09-12T11:36:02.295Z,0.95
2018-09-12T11:38:31.282Z,1.75
2018-09-12T11:41:00.248Z,0.95
2018-09-12T11:43:29.248Z,1.10
2018-09-12T11:45:58.314Z,0.85
2018-09-12T11:48:27.291Z,0.85
2018-09-12T11:50:56.256Z,0.95
2018-09-12T11:53:25.234Z,0.93
2018-09-12T11:55:54.794Z,1.00
2018-09-12T11:58:23.777Z,1.15
2018-09-12T12:00:52.805Z,1.10
2018-09-12T12:03:21.848Z,1.07
2018-09-12T12:05:50.921Z,1.15
2018-09-12T12:08:19.924Z,1.27
2018-09-12T12:10:48.862Z,0.90
2018-09-12T12:13:17.988Z,1.17
2018-09-12T12:15:47.278Z,1.07
2018-09-12T12:18:16.541Z,0.95
2018-09-12T12:20:45.506Z,0.70
2018-09-12T12:23:14.558Z,1.27
2018-09-12T12:25:43.507Z,1.20
2018-09-12T12:28:12.468Z,0.93
2018-09-12T12:30:41.438Z,1.05
2018-09-12T12:33:10.435Z,1.07
2018-09-12T12:35:39.441Z,0.93
2018-09-12T12:38:08.397Z,1.20
2018-09-12T12:40:37.618Z,1.02
2018-09-12T12:43:06.661Z,1.20
2018-09-12T12:45:35.617Z,0.98
2018-09-12T12:48:04.785Z,0.93
2018-09-12T12:50:33.836Z,0.82
2018-09-12T12:53:02.813Z,1.00
2018-09-12T12:55:31.812Z,0.85
2018-09-12T12:58:00.804Z,1.07
2018-09-12T13:00:29.757Z,0.75
2018-09-12T13:02:58.787Z,0.50
2018-09-12T13:05:27.897Z,0.93
2018-09-12T13:07:56.811Z,0.78
2018-09-12T13:10:26.039Z,0.90
2018-09-12T13:12:55.012Z,0.90
2018-09-12T13:15:23.999Z,0.60
2018-09-12T13:17:52.972Z,0.90
2018-09-12T13:20:21.955Z,0.90
2018-09-12T13:22:51.013Z,0.93
2018-09-12T13:25:19.931Z,0.68
2018-09-12T13:27:49.099Z,0.80
2018-09-12T13:30:18.035Z,0.80
2018-09-12T13:32:46.985Z,0.65
2018-09-12T13:35:15.973Z,0.70
2018-09-12T13:37:44.977Z,0.70
2018-09-12T13:40:13.954Z,0.60
2018-09-12T13:42:42.960Z,0.50
2018-09-12T13:45:12.134Z,0.80
2018-09-12T13:47:41.609Z,0.70
2018-09-12T13:50:13.396Z,0.68
2018-09-12T13:52:42.403Z,0.60
2018-09-12T13:55:11.458Z,0.72
2018-09-12T13:57:40.398Z,0.60
2018-09-12T14:00:09.452Z,0.50
2018-09-12T14:02:38.407Z,0.70
2018-09-12T14:05:07.693Z,0.50
2018-09-12T14:07:36.745Z,0.50
2018-09-12T14:10:06.055Z,0.55
2018-09-12T14:12:35.053Z,0.50
2018-09-12T14:15:04.044Z,0.53
2018-09-12T14:17:32.982Z,0.82
2018-09-12T14:20:02.008Z,1.00
2018-09-12T14:22:31.161Z,0.70
2018-09-12T14:25:00.208Z,0.70
2018-09-12T14:27:29.211Z,0.75
2018-09-12T14:29:58.219Z,0.82
2018-09-12T14:32:27.262Z,0.75
2018-09-12T14:34:56.216Z,0.80
2018-09-12T14:37:25.361Z,0.90
2018-09-12T14:39:54.250Z,0.75
2018-09-12T14:42:23.228Z,0.50
2018-09-12T14:44:52.228Z,0.60
2018-09-12T14:47:21.224Z,0.50
2018-09-12T14:49:50.153Z,0.50
2018-09-12T14:52:19.402Z,0.62
2018-09-12T14:54:48.346Z,0.80
2018-09-12T14:57:17.303Z,0.65
2018-09-12T14:59:46.351Z,0.50
2018-09-12T15:02:15.378Z,0.62
2018-09-12T15:04:44.404Z,0.60
2018-09-12T15:07:13.372Z,0.40
2018-09-12T15:09:42.313Z,0.60
2018-09-12T15:12:11.292Z,0.40
2018-09-12T15:14:40.277Z,0.33
2018-09-12T15:17:09.237Z,0.50
2018-09-12T15:19:38.174Z,0.80
2018-09-12T15:22:07.289Z,0.80
2018-09-12T15:24:36.234Z,0.70
2018-09-12T15:27:05.308Z,0.60
2018-09-12T15:29:34.280Z,0.57
2018-09-12T15:32:03.248Z,0.62
2018-09-12T15:34:32.267Z,0.70
2018-09-12T15:37:01.299Z,0.60
2018-09-12T15:39:30.298Z,0.50
2018-09-12T15:41:59.455Z,0.50
2018-09-12T15:44:28.430Z,0.60
2018-09-12T15:46:57.365Z,0.47
2018-09-12T15:49:26.366Z,0.73
2018-09-12T15:51:55.319Z,0.50
2018-09-12T15:54:24.430Z,0.55
2018-09-12T15:56:53.468Z,0.30
2018-09-12T15:59:22.468Z,0.47
2018-09-12T16:01:51.445Z,0.53
2018-09-12T16:04:20.430Z,0.60
2018-09-12T16:06:49.398Z,0.60
2018-09-12T16:09:18.406Z,0.40
2018-09-12T16:11:47.391Z,0.60
2018-09-12T16:14:16.395Z,0.40
2018-09-12T16:16:45.490Z,0.90
2018-09-12T16:19:14.471Z,0.55
2018-09-12T16:21:43.519Z,5.85
2018-09-12T16:24:12.508Z,0.60
2018-09-12T16:26:41.491Z,0.62
2018-09-12T16:29:10.496Z,0.95
2018-09-12T16:31:39.536Z,0.85
2018-09-12T16:34:08.609Z,0.72
2018-09-12T16:36:37.642Z,3.37
2018-09-12T16:39:09.878Z,1.27
2018-09-12T16:41:38.831Z,4.37
2018-09-12T16:44:07.817Z,3.43
2018-09-12T16:46:36.869Z,3.73
2018-09-12T16:49:06.019Z,1.80
2018-09-12T16:51:35.784Z,3.05
2018-09-12T16:54:04.878Z,3.52
2018-09-12T16:56:33.956Z,0.87
2018-09-12T16:59:03.171Z,0.70
2018-09-12T17:01:32.660Z,0.80
2018-09-12T17:04:01.677Z,0.93
2018-09-12T17:06:30.711Z,1.10
2018-09-12T17:08:59.725Z,1.20
2018-09-12T17:11:28.766Z,0.90
2018-09-12T17:13:57.868Z,1.33
2018-09-12T17:16:26.867Z,0.90
2018-09-12T17:18:55.880Z,1.00
2018-09-12T17:21:24.847Z,1.07
2018-09-12T17:23:53.892Z,0.90
2018-09-12T17:26:22.974Z,0.90
2018-09-12T17:28:51.992Z,0.90
2018-09-12T17:31:21.000Z,0.90
2018-09-12T17:33:50.014Z,0.93
2018-09-12T17:36:18.981Z,0.80
2018-09-12T17:38:48.063Z,0.78
2018-09-12T17:41:17.068Z,0.80
2018-09-12T17:43:46.064Z,0.70
2018-09-12T17:46:15.051Z,1.00
2018-09-12T17:48:44.055Z,0.60
2018-09-12T17:51:13.097Z,0.80
2018-09-12T17:53:42.065Z,0.90
2018-09-12T17:56:12.124Z,0.70
2018-09-12T17:58:41.120Z,0.65
2018-09-12T18:01:10.401Z,1.02
2018-09-12T18:03:39.387Z,0.68
2018-09-12T18:06:08.381Z,0.53
2018-09-12T18:08:37.382Z,0.60
2018-09-12T18:11:06.388Z,0.60
2018-09-12T18:13:35.426Z,0.60
2018-09-12T18:16:04.374Z,0.78
2018-09-12T18:18:33.436Z,0.70
2018-09-12T18:21:02.454Z,0.57
2018-09-12T18:23:31.643Z,0.57
2018-09-12T18:26:00.677Z,0.77
2018-09-12T18:28:29.665Z,0.90
2018-09-12T18:30:58.758Z,0.82
2018-09-12T18:33:27.791Z,0.67
2018-09-12T18:35:56.881Z,0.87
2018-09-12T18:38:25.896Z,0.72
2018-09-12T18:40:54.995Z,1.37
2018-09-12T18:43:24.045Z,0.90
2018-09-12T18:45:53.082Z,0.80
2018-09-12T18:48:22.088Z,1.10
2018-09-12T18:50:51.164Z,0.43
2018-09-12T18:53:20.193Z,1.07
2018-09-12T18:55:49.240Z,0.90
2018-09-12T18:58:18.285Z,1.17
2018-09-12T19:00:47.331Z,0.72
2018-09-12T19:03:16.345Z,0.68
2018-09-12T19:05:46.455Z,1.40
2018-09-12T19:08:15.560Z,0.95
2018-09-12T19:10:44.622Z,0.80
2018-09-12T19:13:13.939Z,0.70
2018-09-12T19:15:43.078Z,0.50
2018-09-12T19:18:12.103Z,1.10
2018-09-12T19:20:41.143Z,0.60
2018-09-12T19:23:10.219Z,0.80
2018-09-12T19:25:39.204Z,0.90
2018-09-12T19:28:10.213Z,0.70
2018-09-12T19:30:39.246Z,0.47
2018-09-12T19:33:08.304Z,1.07
2018-09-12T19:35:37.453Z,0.88
2018-09-12T19:38:06.427Z,0.50
2018-09-12T19:40:35.576Z,0.60
2018-09-12T19:43:04.682Z,0.60
2018-09-12T19:45:33.694Z,0.70
2018-09-12T19:48:02.974Z,0.37
2018-09-12T19:50:32.018Z,0.53
2018-09-12T19:53:01.058Z,0.50
2018-09-12T19:55:30.164Z,0.60
2018-09-12T19:57:59.582Z,0.50
2018-09-12T20:00:28.767Z,0.60
2018-09-12T20:02:57.953Z,0.53
2018-09-12T20:05:26.974Z,0.50
2018-09-12T20:07:56.091Z,0.90
2018-09-12T20:10:25.189Z,0.50
2018-09-12T20:12:54.238Z,0.87
2018-09-12T20:15:23.319Z,0.60
2018-09-12T20:17:52.377Z,1.07
2018-09-12T20:20:21.659Z,0.50
2018-09-12T20:22:50.636Z,1.37
2018-09-12T20:25:19.615Z,0.30
2018-09-12T20:27:48.711Z,0.37
2018-09-12T20:30:18.435Z,0.70
2018-09-12T20:32:47.436Z,2.90
2018-09-12T20:35:16.553Z,0.90
2018-09-12T20:37:45.589Z,0.57
2018-09-12T20:40:14.597Z,0.73
2018-09-12T20:42:43.605Z,0.80
2018-09-12T20:45:12.562Z,0.83
2018-09-12T20:47:41.659Z,1.10
2018-09-12T20:50:10.713Z,0.87
2018-09-12T20:52:39.663Z,0.97
2018-09-12T20:55:08.704Z,1.10
2018-09-12T20:57:37.866Z,0.70
2018-09-12T21:00:07.073Z,0.77
2018-09-12T21:02:36.257Z,0.83
2018-09-12T21:05:05.298Z,0.70
2018-09-12T21:07:34.320Z,0.60
2018-09-12T21:10:03.330Z,0.70
2018-09-12T21:12:32.323Z,0.60
2018-09-12T21:15:01.302Z,0.67
2018-09-12T21:17:30.391Z,0.80
2018-09-12T21:19:59.415Z,1.00
2018-09-12T21:22:28.362Z,0.63
2018-09-12T21:24:57.390Z,0.60
2018-09-12T21:27:26.388Z,0.70
2018-09-12T21:29:55.628Z,0.50
2018-09-12T21:32:24.621Z,0.60
2018-09-12T21:34:53.590Z,0.80
2018-09-12T21:37:22.565Z,0.80
2018-09-12T21:39:51.512Z,0.60
2018-09-12T21:42:20.530Z,0.50
2018-09-12T21:44:49.530Z,0.70
2018-09-12T21:47:18.500Z,0.57
2018-09-12T21:49:47.579Z,1.07
2018-09-12T21:52:16.551Z,0.70
2018-09-12T21:54:45.605Z,0.70
2018-09-12T21:57:14.568Z,0.60
2018-09-12T21:59:43.573Z,0.87
2018-09-12T22:02:12.560Z,1.10
2018-09-12T22:04:41.543Z,0.70
2018-09-12T22:07:10.621Z,0.70
2018-09-12T22:09:39.597Z,0.63
2018-09-12T22:12:08.590Z,0.70
2018-09-12T22:14:37.630Z,0.80
2018-09-12T22:17:06.634Z,0.67
2018-09-12T22:19:35.762Z,0.50
2018-09-12T22:22:04.735Z,0.80
2018-09-12T22:24:36.082Z,0.60
2018-09-12T22:27:06.692Z,0.60
2018-09-12T22:29:36.032Z,0.57
2018-09-12T22:32:07.648Z,0.67
2018-09-12T22:34:40.645Z,0.70
2018-09-12T22:37:09.958Z,0.70
2018-09-12T22:39:39.124Z,0.50
2018-09-12T22:42:08.197Z,0.60
2018-09-12T22:44:37.196Z,0.60
2018-09-12T22:47:06.196Z,0.83
2018-09-12T22:49:35.211Z,0.60
2018-09-12T22:52:04.196Z,0.63
2018-09-12T22:54:33.153Z,0.50
2018-09-12T22:57:02.131Z,0.70
2018-09-12T22:59:31.136Z,1.03
2018-09-12T23:02:00.108Z,0.70
2018-09-12T23:04:29.107Z,0.70
2018-09-12T23:06:58.406Z,0.70
2018-09-12T23:09:27.441Z,0.53
2018-09-12T23:11:56.419Z,0.70
2018-09-12T23:14:25.421Z,0.50
2018-09-12T23:16:54.392Z,1.00
2018-09-12T23:19:23.400Z,0.50
2018-09-12T23:21:52.471Z,0.90
2018-09-12T23:24:21.532Z,0.50
2018-09-12T23:26:50.567Z,0.60
2018-09-12T23:29:19.556Z,0.50
2018-09-12T23:31:48.599Z,0.60
2018-09-12T23:34:17.581Z,0.60
2018-09-12T23:36:46.550Z,0.80
2018-09-12T23:39:15.554Z,0.63
2018-09-12T23:41:44.542Z,0.80
2018-09-12T23:44:13.545Z,0.83
2018-09-12T23:46:42.517Z,0.67
2018-09-12T23:49:11.551Z,0.53
2018-09-12T23:51:40.545Z,0.60
2018-09-12T23:54:09.593Z,0.80
2018-09-12T23:56:38.611Z,0.57
2018-09-12T23:59:07.565Z,0.60
